International Virtual Aviation Organisation

Eastern Europe and Northern Asia MCD

 

Карточка аэропорта ULMM

Внимание!
Информация на этой странице в стадии наполнения.
Если вы не увидели какой-то информации, или заметили неточность - пожалуйста сообщите нам!
Спасибо!
Команда RU-STAFF
Название аэропортаМурманск
Название аэропорта (англ.)Murmansk
Превышение262 ft. (79.9 m.)
Координаты68°46.902', 32°45.066'
Высота перехода900m
Эшелон переходаQFE>=753mm:FL050; QFE<753=>727:FL060; QFE<727:FL070
Коды ответчика3101-3117
Зона ОрВДМурманск РПИ (ULMM)
Данные METARULMM 101200Z 20005G11MPS 180V250 9999 SCT028CB 04/M03 Q0988 R13/120065 NOSIG RMK QFE735
Проноз погоды (TAF)ULMM 101056Z 1012/1112 21003G08MPS 9999 BKN016CB TEMPO 1012/1020 23007G14MPS -SHRASN TEMPO 1104/1112 25009G14MPS
NOTAMshow/hide NOTAM
AWOS   TABLE

Информация о ВПП

ВПП Длина ВПП (м.) Покрытие Курс ВПП Частота ILS
132500Асфальтобетон131110.3
312500Асфальтобетон311108.5

Диспетчерские позиции




Спутниковое изображение